createdAt,value
2022-11-05T00:00:09.344Z,2.9
2022-11-05T00:01:17.740Z,2.9
2022-11-05T00:02:26.023Z,2.9
2022-11-05T00:03:34.610Z,3.1
2022-11-05T00:04:42.924Z,3.1
2022-11-05T00:05:51.297Z,3.1
2022-11-05T00:06:59.812Z,3.1
2022-11-05T00:08:08.159Z,3.1
2022-11-05T00:09:16.532Z,3.1
2022-11-05T00:10:25.084Z,2.7
2022-11-05T00:11:33.428Z,2.7
2022-11-05T00:12:41.783Z,2.7
2022-11-05T00:13:50.345Z,2.7
2022-11-05T00:14:58.714Z,2.7
2022-11-05T00:16:07.056Z,2.7
2022-11-05T00:17:15.607Z,2.8
2022-11-05T00:18:23.960Z,2.8
2022-11-05T00:19:32.315Z,2.8
2022-11-05T00:20:40.856Z,3
2022-11-05T00:21:49.226Z,3
2022-11-05T00:22:57.545Z,3
2022-11-05T00:24:06.112Z,2.7
2022-11-05T00:25:14.450Z,2.7
2022-11-05T00:26:22.804Z,2.7
2022-11-05T00:27:31.363Z,2.7
2022-11-05T00:28:39.714Z,2.7
2022-11-05T00:29:48.060Z,2.7
2022-11-05T00:30:56.605Z,3
2022-11-05T00:32:04.949Z,3
2022-11-05T00:33:13.546Z,3
2022-11-05T00:34:21.878Z,2.9
2022-11-05T00:35:30.937Z,2.9
2022-11-05T00:36:39.265Z,2.9
2022-11-05T00:37:50.200Z,2.6
2022-11-05T00:38:56.175Z,2.6
2022-11-05T00:40:04.520Z,2.6
2022-11-05T00:41:13.060Z,2.5
2022-11-05T00:42:21.401Z,2.5
2022-11-05T00:43:29.751Z,2.5
2022-11-05T00:44:38.300Z,2.9
2022-11-05T00:45:46.645Z,2.9
2022-11-05T00:46:59.699Z,2.9
2022-11-05T00:48:03.550Z,2.7
2022-11-05T00:49:11.894Z,2.7
2022-11-05T00:50:20.236Z,2.7
2022-11-05T00:51:28.785Z,3.1
2022-11-05T00:52:37.127Z,3.1
2022-11-05T00:53:45.500Z,3.1
2022-11-05T00:54:54.030Z,3
2022-11-05T00:56:02.385Z,3
2022-11-05T00:57:10.732Z,3
2022-11-05T00:58:19.289Z,3
2022-11-05T00:59:27.649Z,3
2022-11-05T01:00:35.982Z,3
2022-11-05T01:01:44.612Z,2.7
2022-11-05T01:02:52.974Z,2.7
2022-11-05T01:04:01.234Z,2.7
2022-11-05T01:05:09.792Z,3.2
2022-11-05T01:06:18.150Z,3.2
2022-11-05T01:07:26.481Z,3.2
2022-11-05T01:08:35.052Z,3.2
2022-11-05T01:09:43.502Z,3.2
2022-11-05T01:10:51.725Z,3.2
2022-11-05T01:12:00.285Z,3
2022-11-05T01:13:12.639Z,3
2022-11-05T01:14:16.988Z,3
2022-11-05T01:15:25.532Z,3.3
2022-11-05T01:16:33.874Z,3.3
2022-11-05T01:17:42.218Z,3.3
2022-11-05T01:18:50.779Z,2.9
2022-11-05T01:19:59.112Z,2.9
2022-11-05T01:21:07.451Z,2.9
2022-11-05T01:22:16.005Z,3.4
2022-11-05T01:23:24.350Z,3.4
2022-11-05T01:24:32.691Z,3.4
2022-11-05T01:25:41.281Z,3.1
2022-11-05T01:26:49.594Z,3.1
2022-11-05T01:27:57.967Z,3.1
2022-11-05T01:29:06.582Z,3
2022-11-05T01:30:14.893Z,3
2022-11-05T01:31:23.215Z,3
2022-11-05T01:32:31.762Z,3.3
2022-11-05T01:33:40.111Z,3.3
2022-11-05T01:34:48.459Z,3.3
2022-11-05T01:35:57.012Z,3.3
2022-11-05T01:37:05.369Z,3.3
2022-11-05T01:38:13.686Z,3.3
2022-11-05T01:39:22.245Z,3.5
2022-11-05T01:40:30.592Z,3.5
2022-11-05T01:41:38.969Z,3.5
2022-11-05T01:42:47.496Z,3.4
2022-11-05T01:43:55.858Z,3.4
2022-11-05T01:45:04.204Z,3.4
2022-11-05T01:46:12.754Z,3.5
2022-11-05T01:47:21.098Z,3.5
2022-11-05T01:48:29.461Z,3.5
2022-11-05T01:49:38.006Z,3.3
2022-11-05T01:50:46.349Z,3.3
2022-11-05T01:51:54.691Z,3.3
2022-11-05T01:53:03.265Z,3.4
2022-11-05T01:54:11.600Z,3.4
2022-11-05T01:55:19.945Z,3.4
2022-11-05T01:56:28.487Z,3.7
2022-11-05T01:57:36.849Z,3.7
2022-11-05T01:58:45.185Z,3.7
2022-11-05T01:59:53.744Z,3.2
2022-11-05T02:01:02.083Z,3.2
2022-11-05T02:02:10.538Z,3.2
2022-11-05T02:03:18.994Z,2.8
2022-11-05T02:04:27.340Z,2.8
2022-11-05T02:05:35.679Z,2.8
2022-11-05T02:06:44.227Z,3.1
2022-11-05T02:07:52.593Z,3.1
2022-11-05T02:09:00.936Z,3.1
2022-11-05T02:10:09.493Z,3
2022-11-05T02:11:17.837Z,3
2022-11-05T02:12:26.181Z,3
2022-11-05T02:13:34.859Z,3.4
2022-11-05T02:14:43.095Z,3.4
2022-11-05T02:15:51.438Z,3.4
2022-11-05T02:16:59.989Z,3.4
2022-11-05T02:18:08.340Z,3.4
2022-11-05T02:19:16.683Z,3.4
2022-11-05T02:20:25.235Z,3.6
2022-11-05T02:21:33.579Z,3.6
2022-11-05T02:22:41.924Z,3.6
2022-11-05T02:23:50.476Z,3.3
2022-11-05T02:24:58.826Z,3.3
2022-11-05T02:26:07.171Z,3.3
2022-11-05T02:27:15.725Z,3.3
2022-11-05T02:28:24.082Z,3.3
2022-11-05T02:29:32.436Z,3.3
2022-11-05T02:30:40.975Z,3.6
2022-11-05T02:31:49.325Z,3.6
2022-11-05T02:32:57.702Z,3.6
2022-11-05T02:34:06.252Z,3.4
2022-11-05T02:35:14.591Z,3.4
2022-11-05T02:36:22.931Z,3.4
2022-11-05T02:37:31.485Z,3.7
2022-11-05T02:38:39.862Z,3.7
2022-11-05T02:39:48.211Z,3.7
2022-11-05T02:40:56.754Z,3.2
2022-11-05T02:42:05.450Z,3.2
2022-11-05T02:43:13.745Z,3.2
2022-11-05T02:44:22.033Z,3.3
2022-11-05T02:45:30.396Z,3.3
2022-11-05T02:46:38.726Z,3.3
2022-11-05T02:47:47.267Z,3.3
2022-11-05T02:48:55.615Z,3.3
2022-11-05T02:50:03.958Z,3.3
2022-11-05T02:51:12.526Z,3.1
2022-11-05T02:52:20.863Z,3.1
2022-11-05T02:53:29.225Z,3.1
2022-11-05T02:54:37.778Z,3.4
2022-11-05T02:55:46.129Z,3.4
2022-11-05T02:56:54.474Z,3.4
2022-11-05T02:58:03.042Z,3.3
2022-11-05T02:59:11.391Z,3.3
2022-11-05T03:00:19.735Z,3.3
2022-11-05T03:01:28.379Z,3.1
2022-11-05T03:02:36.701Z,3.1
2022-11-05T03:03:45.004Z,3.1
2022-11-05T03:04:53.580Z,3.5
2022-11-05T03:06:01.930Z,3.5
2022-11-05T03:07:10.264Z,3.5
2022-11-05T03:08:18.843Z,3.6
2022-11-05T03:09:27.183Z,3.6
2022-11-05T03:10:35.536Z,3.6
2022-11-05T03:11:44.090Z,3.6
2022-11-05T03:12:52.471Z,3.6
2022-11-05T03:14:00.813Z,3.6
2022-11-05T03:15:09.371Z,3.8
2022-11-05T03:16:17.719Z,3.8
2022-11-05T03:17:26.259Z,3.8
2022-11-05T03:18:34.628Z,4.1
2022-11-05T03:19:42.981Z,4.1
2022-11-05T03:20:51.324Z,4.1
2022-11-05T03:21:59.874Z,4.6
2022-11-05T03:23:08.446Z,4.6
2022-11-05T03:24:16.569Z,4.6
2022-11-05T03:25:25.115Z,4.4
2022-11-05T03:26:33.468Z,4.4
2022-11-05T03:27:41.820Z,4.4
2022-11-05T03:28:50.355Z,4.4
2022-11-05T03:29:58.714Z,4.4
2022-11-05T03:31:07.054Z,4.4
2022-11-05T03:32:15.616Z,5.1
2022-11-05T03:33:23.990Z,5.1
2022-11-05T03:34:32.309Z,5.1
2022-11-05T03:35:40.862Z,4.7
2022-11-05T03:36:49.203Z,4.7
2022-11-05T03:37:57.563Z,4.7
2022-11-05T03:39:06.128Z,5.2
2022-11-05T03:40:14.481Z,5.2
2022-11-05T03:41:22.823Z,5.2
2022-11-05T03:42:31.362Z,5.5
2022-11-05T03:43:39.741Z,5.5
2022-11-05T03:44:48.088Z,5.5
2022-11-05T03:45:56.638Z,5.7
2022-11-05T03:47:04.992Z,5.7
2022-11-05T03:48:13.364Z,5.7
2022-11-05T03:49:21.906Z,6.5
2022-11-05T03:50:30.231Z,6.5
2022-11-05T03:51:38.575Z,6.5
2022-11-05T03:52:47.142Z,7
2022-11-05T03:53:55.480Z,7
2022-11-05T03:55:03.828Z,7
2022-11-05T03:56:12.377Z,7.7
2022-11-05T03:57:20.720Z,7.7
2022-11-05T03:58:29.072Z,7.7
2022-11-05T03:59:37.625Z,7.9
2022-11-05T04:00:45.964Z,7.9
2022-11-05T04:01:54.407Z,7.9
2022-11-05T04:03:02.935Z,7.9
2022-11-05T04:04:11.223Z,7.9
2022-11-05T04:05:19.599Z,7.9
2022-11-05T04:06:28.121Z,8.2
2022-11-05T04:07:36.465Z,8.2
2022-11-05T04:08:44.817Z,8.2
2022-11-05T04:09:53.379Z,8.7
2022-11-05T04:11:01.721Z,8.7
2022-11-05T04:12:10.068Z,8.7
2022-11-05T04:13:18.628Z,8
2022-11-05T04:14:26.967Z,8
2022-11-05T04:15:35.309Z,8
2022-11-05T04:16:43.868Z,8
2022-11-05T04:17:52.237Z,8
2022-11-05T04:19:00.592Z,8
2022-11-05T04:20:09.154Z,7.2
2022-11-05T04:21:17.530Z,7.2
2022-11-05T04:22:25.860Z,7.2
2022-11-05T04:23:34.414Z,7.9
2022-11-05T04:24:42.771Z,7.9
2022-11-05T04:25:51.122Z,7.9
2022-11-05T04:26:59.672Z,8.1
2022-11-05T04:28:08.028Z,8.1
2022-11-05T04:29:16.380Z,8.1
2022-11-05T04:30:24.925Z,7.6
2022-11-05T04:31:33.266Z,7.6
2022-11-05T04:32:41.639Z,7.6
2022-11-05T04:33:50.195Z,9.4
2022-11-05T04:34:58.539Z,9.4
2022-11-05T04:36:06.872Z,9.4
2022-11-05T04:37:15.460Z,8.6
2022-11-05T04:38:23.776Z,8.6
2022-11-05T04:39:32.121Z,8.6
2022-11-05T04:40:40.662Z,7.3
2022-11-05T04:41:49.030Z,7.3
2022-11-05T04:42:57.354Z,7.3
2022-11-05T04:44:05.919Z,7.7
2022-11-05T04:45:14.258Z,7.7
2022-11-05T04:46:22.609Z,7.7
2022-11-05T04:47:31.158Z,8
2022-11-05T04:48:39.506Z,8
2022-11-05T04:49:47.871Z,8
2022-11-05T04:50:56.423Z,9
2022-11-05T04:52:04.770Z,9
2022-11-05T04:53:13.395Z,9
2022-11-05T04:54:21.675Z,8.3
2022-11-05T04:55:30.017Z,8.3
2022-11-05T04:56:38.365Z,8.3
2022-11-05T04:57:46.934Z,7.9
2022-11-05T04:58:55.280Z,7.9
2022-11-05T05:00:03.619Z,7.9
2022-11-05T05:01:12.244Z,8.6
2022-11-05T05:02:20.583Z,8.6
2022-11-05T05:03:28.856Z,8.6
2022-11-05T05:04:37.405Z,8.2
2022-11-05T05:05:45.734Z,8.2
2022-11-05T05:06:54.069Z,8.2
2022-11-05T05:08:02.622Z,9
2022-11-05T05:09:11.074Z,9
2022-11-05T05:10:19.303Z,9
2022-11-05T05:11:27.834Z,8.6
2022-11-05T05:12:36.200Z,8.6
2022-11-05T05:13:44.541Z,8.6
2022-11-05T05:14:53.101Z,9.2
2022-11-05T05:16:01.505Z,9.2
2022-11-05T05:17:09.857Z,9.2
2022-11-05T05:18:18.431Z,8.9
2022-11-05T05:19:26.803Z,8.9
2022-11-05T05:20:35.150Z,8.9
2022-11-05T05:21:43.699Z,9.1
2022-11-05T05:22:52.100Z,9.1
2022-11-05T05:24:00.433Z,9.1
2022-11-05T05:25:09.010Z,9.2
2022-11-05T05:26:17.331Z,9.2
2022-11-05T05:27:25.686Z,9.2
2022-11-05T05:28:34.271Z,9.1
2022-11-05T05:29:42.617Z,9.1
2022-11-05T05:30:53.630Z,9.1
2022-11-05T05:31:59.528Z,9.6
2022-11-05T05:33:07.952Z,9.6
2022-11-05T05:34:16.233Z,9.6
2022-11-05T05:35:24.816Z,10.6
2022-11-05T05:36:33.154Z,10.6
2022-11-05T05:37:41.498Z,10.6
2022-11-05T05:38:50.054Z,10.5
2022-11-05T05:39:58.403Z,10.5
2022-11-05T05:41:06.815Z,10.5
2022-11-05T05:42:15.292Z,11.2
2022-11-05T05:43:23.643Z,11.2
2022-11-05T05:44:31.984Z,11.2
2022-11-05T05:45:40.538Z,10.4
2022-11-05T05:46:48.895Z,10.4
2022-11-05T05:47:57.245Z,10.4
2022-11-05T05:49:11.172Z,10.3
2022-11-05T05:50:14.133Z,10.3
2022-11-05T05:51:22.485Z,10.3
2022-11-05T05:52:31.024Z,10.7
2022-11-05T05:53:39.378Z,10.7
2022-11-05T05:54:47.720Z,10.7
2022-11-05T05:55:56.274Z,10.7
2022-11-05T05:57:04.738Z,10.7
2022-11-05T05:58:12.975Z,10.7
2022-11-05T05:59:21.524Z,11.3
2022-11-05T06:00:29.859Z,11.3
2022-11-05T06:01:38.348Z,11.3
2022-11-05T06:02:46.887Z,12.2
2022-11-05T06:03:55.107Z,12.2
2022-11-05T06:05:03.443Z,12.2
2022-11-05T06:06:12.011Z,11.8
2022-11-05T06:07:20.373Z,11.8
2022-11-05T06:08:28.714Z,11.8
2022-11-05T06:09:37.280Z,11.2
2022-11-05T06:10:45.670Z,11.2
2022-11-05T06:11:53.973Z,11.2
2022-11-05T06:13:02.584Z,11.8
2022-11-05T06:14:10.896Z,11.8
2022-11-05T06:15:19.238Z,11.8
2022-11-05T06:16:27.802Z,11.9
2022-11-05T06:17:36.159Z,11.9
2022-11-05T06:18:44.511Z,11.9
2022-11-05T06:19:53.056Z,11.5
2022-11-05T06:21:01.409Z,11.5
2022-11-05T06:22:09.749Z,11.5
2022-11-05T06:23:18.340Z,11.1
2022-11-05T06:24:26.682Z,11.1
2022-11-05T06:25:40.037Z,11.1
2022-11-05T06:26:43.563Z,11.2
2022-11-05T06:27:51.914Z,11.2
2022-11-05T06:29:00.278Z,11.2
2022-11-05T06:30:08.808Z,12.3
2022-11-05T06:31:17.143Z,12.3
2022-11-05T06:32:25.500Z,12.3
2022-11-05T06:33:34.050Z,12.3
2022-11-05T06:34:42.401Z,12.3
2022-11-05T06:35:50.739Z,12.3
2022-11-05T06:36:59.278Z,12.6
2022-11-05T06:38:07.650Z,12.6
2022-11-05T06:39:15.975Z,12.6
2022-11-05T06:40:24.529Z,12.6
2022-11-05T06:41:41.454Z,12.6
2022-11-05T06:42:41.244Z,12.6
2022-11-05T06:43:49.814Z,13
2022-11-05T06:44:58.175Z,13
2022-11-05T06:46:06.493Z,13
2022-11-05T06:47:15.040Z,19.200001
2022-11-05T06:48:23.402Z,19.200001
2022-11-05T06:49:31.790Z,19.200001
2022-11-05T06:50:40.317Z,35.5
2022-11-05T06:51:48.656Z,35.5
2022-11-05T06:52:57.017Z,35.5
2022-11-05T06:54:05.573Z,14.2
2022-11-05T06:55:13.920Z,14.2
2022-11-05T06:56:22.265Z,14.2
2022-11-05T06:57:30.817Z,15.8
2022-11-05T06:58:39.162Z,15.8
2022-11-05T06:59:47.523Z,15.8
2022-11-05T07:00:56.340Z,10.8
2022-11-05T07:02:04.502Z,10.8
2022-11-05T07:03:13.238Z,10.8
2022-11-05T07:04:21.345Z,11.9
2022-11-05T07:05:29.689Z,11.9
2022-11-05T07:06:38.040Z,11.9
2022-11-05T07:07:46.594Z,11.7
2022-11-05T07:08:54.933Z,11.7
2022-11-05T07:10:03.293Z,11.7
2022-11-05T07:11:11.839Z,9.9
2022-11-05T07:12:20.198Z,9.9
2022-11-05T07:13:28.545Z,9.9
2022-11-05T07:14:37.089Z,10
2022-11-05T07:15:45.439Z,10
2022-11-05T07:16:53.896Z,10
2022-11-05T07:18:02.352Z,10.3
2022-11-05T07:19:10.713Z,10.3
2022-11-05T07:20:19.046Z,10.3
2022-11-05T07:21:27.595Z,18.5
2022-11-05T07:22:35.945Z,18.5
2022-11-05T07:23:44.292Z,18.5
2022-11-05T07:24:52.841Z,44.5
2022-11-05T07:26:01.200Z,44.5
2022-11-05T07:27:09.559Z,44.5
2022-11-05T07:28:18.103Z,9.9
2022-11-05T07:29:26.456Z,9.9
2022-11-05T07:30:34.826Z,9.9
2022-11-05T07:31:43.391Z,10.7
2022-11-05T07:32:51.757Z,10.7
2022-11-05T07:34:00.075Z,10.7
2022-11-05T07:35:08.616Z,10.2
2022-11-05T07:36:16.959Z,10.2
2022-11-05T07:37:25.317Z,10.2
2022-11-05T07:38:33.896Z,12.6
2022-11-05T07:39:42.217Z,12.6
2022-11-05T07:40:50.561Z,12.6
2022-11-05T07:41:59.125Z,23.9
2022-11-05T07:43:07.458Z,23.9
2022-11-05T07:44:15.797Z,23.9
2022-11-05T07:45:24.340Z,41
2022-11-05T07:46:32.706Z,41
2022-11-05T07:47:41.052Z,41
2022-11-05T07:48:49.640Z,9.4
2022-11-05T07:49:57.963Z,9.4
2022-11-05T07:51:06.316Z,9.4
2022-11-05T07:52:14.867Z,9.4
2022-11-05T07:53:23.222Z,9.4
2022-11-05T07:54:31.536Z,9.4
2022-11-05T07:55:40.120Z,24.299999
2022-11-05T07:56:48.466Z,24.299999
2022-11-05T07:57:56.810Z,24.299999
2022-11-05T07:59:05.351Z,9.5
2022-11-05T08:00:13.706Z,9.5
2022-11-05T08:01:22.254Z,9.5
2022-11-05T08:02:30.726Z,17.799999
2022-11-05T08:03:39.031Z,17.799999
2022-11-05T08:04:47.350Z,17.799999
2022-11-05T08:05:55.880Z,12.3
2022-11-05T08:07:04.235Z,12.3
2022-11-05T08:08:12.579Z,12.3
2022-11-05T08:09:21.144Z,12.4
2022-11-05T08:10:29.504Z,12.4
2022-11-05T08:11:37.867Z,12.4
2022-11-05T08:12:46.433Z,14.5
2022-11-05T08:13:54.791Z,14.5
2022-11-05T08:15:03.134Z,14.5
2022-11-05T08:16:11.722Z,11.5
2022-11-05T08:17:20.063Z,11.5
2022-11-05T08:18:28.415Z,11.5
2022-11-05T08:19:36.972Z,8.5
2022-11-05T08:20:45.641Z,8.5
2022-11-05T08:21:53.702Z,8.5
2022-11-05T08:23:02.254Z,22.4
2022-11-05T08:24:10.599Z,22.4
2022-11-05T08:25:18.958Z,22.4
2022-11-05T08:26:27.532Z,36
2022-11-05T08:27:35.883Z,36
2022-11-05T08:28:44.249Z,36
2022-11-05T08:29:52.806Z,72.400002
2022-11-05T08:31:01.174Z,72.400002
2022-11-05T08:32:09.522Z,72.400002
2022-11-05T08:33:18.082Z,26.6
2022-11-05T08:34:26.450Z,26.6
2022-11-05T08:35:34.785Z,26.6
2022-11-05T08:36:43.397Z,23
2022-11-05T08:37:51.743Z,23
2022-11-05T08:39:00.109Z,23
2022-11-05T08:40:08.668Z,13
2022-11-05T08:41:17.041Z,13
2022-11-05T08:42:25.404Z,13
2022-11-05T08:43:33.959Z,17.200001
2022-11-05T08:44:42.315Z,17.200001
2022-11-05T08:45:50.696Z,17.200001
2022-11-05T08:46:59.254Z,8.2
2022-11-05T08:48:07.617Z,8.2
2022-11-05T08:49:15.981Z,8.2
2022-11-05T08:50:24.569Z,9.3
2022-11-05T08:51:32.916Z,9.3
2022-11-05T08:52:41.467Z,9.3
2022-11-05T08:53:49.861Z,8.8
2022-11-05T08:54:58.208Z,8.8
2022-11-05T08:56:06.572Z,8.8
2022-11-05T08:57:15.130Z,8.9
2022-11-05T08:58:23.477Z,8.9
2022-11-05T08:59:31.860Z,8.9
2022-11-05T09:00:40.542Z,10.2
2022-11-05T09:01:48.930Z,10.2
2022-11-05T09:02:57.173Z,10.2
2022-11-05T09:04:05.752Z,11.5
2022-11-05T09:05:14.119Z,11.5
2022-11-05T09:06:22.514Z,11.5
2022-11-05T09:07:31.080Z,12.8
2022-11-05T09:08:39.499Z,12.8
2022-11-05T09:09:47.837Z,12.8
2022-11-05T09:10:56.438Z,15
2022-11-05T09:12:12.059Z,15
2022-11-05T09:13:18.159Z,15
2022-11-05T09:14:21.736Z,12.5
2022-11-05T09:15:30.100Z,12.5
2022-11-05T09:16:38.471Z,12.5
2022-11-05T09:17:47.081Z,38.200001
2022-11-05T09:18:55.449Z,38.200001
2022-11-05T09:20:03.819Z,38.200001
2022-11-05T09:21:12.389Z,10.7
2022-11-05T09:22:20.776Z,10.7
2022-11-05T09:23:29.131Z,10.7
2022-11-05T09:24:37.733Z,11.5
2022-11-05T09:25:46.104Z,11.5
2022-11-05T09:26:54.475Z,11.5
2022-11-05T09:28:03.068Z,16.9
2022-11-05T09:29:14.330Z,16.9
2022-11-05T09:30:19.796Z,16.9
2022-11-05T09:31:28.392Z,19.1
2022-11-05T09:32:36.755Z,19.1
2022-11-05T09:33:45.122Z,19.1
2022-11-05T09:34:53.699Z,98.5
2022-11-05T09:36:02.064Z,98.5
2022-11-05T09:37:10.411Z,98.5
2022-11-05T09:38:18.978Z,9.9
2022-11-05T09:39:27.338Z,9.9
2022-11-05T09:40:35.737Z,9.9
2022-11-05T09:41:44.261Z,8
2022-11-05T09:42:52.630Z,8
2022-11-05T09:44:00.969Z,8
2022-11-05T09:45:09.531Z,20.200001
2022-11-05T09:46:17.914Z,20.200001
2022-11-05T09:47:26.300Z,20.200001
2022-11-05T09:48:34.856Z,7.5
2022-11-05T09:49:43.261Z,7.5
2022-11-05T09:50:51.629Z,7.5
2022-11-05T09:52:00.185Z,5.6
2022-11-05T09:53:08.724Z,5.6
2022-11-05T09:54:16.909Z,5.6
2022-11-05T09:55:25.476Z,6.8
2022-11-05T09:56:33.881Z,6.8
2022-11-05T09:57:42.211Z,6.8
2022-11-05T09:58:50.764Z,8.5
2022-11-05T09:59:59.135Z,8.5
2022-11-05T10:01:07.569Z,8.5
2022-11-05T10:02:16.086Z,6
2022-11-05T10:03:24.415Z,6
2022-11-05T10:04:32.765Z,6
2022-11-05T10:05:41.429Z,26.1
2022-11-05T10:06:49.714Z,26.1
2022-11-05T10:07:58.082Z,26.1
2022-11-05T10:09:06.648Z,13.2
2022-11-05T10:10:15.047Z,13.2
2022-11-05T10:11:23.447Z,13.2
2022-11-05T10:12:32.129Z,4.9
2022-11-05T10:13:40.360Z,4.9
2022-11-05T10:14:48.721Z,4.9
2022-11-05T10:15:57.290Z,6
2022-11-05T10:17:05.649Z,6
2022-11-05T10:18:14.012Z,6
2022-11-05T10:19:22.650Z,4.1
2022-11-05T10:20:31.000Z,4.1
2022-11-05T10:22:04.694Z,4.1
2022-11-05T10:22:49.575Z,4.2
2022-11-05T10:23:56.328Z,4.2
2022-11-05T10:25:04.678Z,4.2
2022-11-05T10:26:13.228Z,7.6
2022-11-05T10:27:21.566Z,7.6
2022-11-05T10:28:29.931Z,7.6
2022-11-05T10:29:38.454Z,10.3
2022-11-05T10:30:46.810Z,10.3
2022-11-05T10:31:55.158Z,10.3
2022-11-05T10:33:03.731Z,8.1
2022-11-05T10:34:12.087Z,8.1
2022-11-05T10:35:20.430Z,8.1
2022-11-05T10:36:29.000Z,7.4
2022-11-05T10:37:40.782Z,7.4
2022-11-05T10:38:45.750Z,7.4
2022-11-05T10:39:54.245Z,4.1
2022-11-05T10:41:02.606Z,4.1
2022-11-05T10:42:10.953Z,4.1
2022-11-05T10:43:19.511Z,9
2022-11-05T10:44:27.883Z,9
2022-11-05T10:45:36.225Z,9
2022-11-05T10:46:44.771Z,19.9
2022-11-05T10:47:53.109Z,19.9
2022-11-05T10:49:01.465Z,19.9
2022-11-05T10:50:10.092Z,11.4
2022-11-05T10:51:18.382Z,11.4
2022-11-05T10:52:26.734Z,11.4
2022-11-05T10:53:35.288Z,41.299999
2022-11-05T10:54:43.647Z,41.299999
2022-11-05T10:55:52.006Z,41.299999
2022-11-05T10:57:00.561Z,3.3
2022-11-05T10:58:08.941Z,3.3
2022-11-05T10:59:17.293Z,3.3
2022-11-05T11:00:25.878Z,5.3
2022-11-05T11:01:34.310Z,5.3
2022-11-05T11:02:42.681Z,5.3
2022-11-05T11:03:51.287Z,11.1
2022-11-05T11:04:59.625Z,11.1
2022-11-05T11:06:08.364Z,11.1
2022-11-05T11:07:17.143Z,2.4
2022-11-05T11:08:26.691Z,2.4
2022-11-05T11:09:35.762Z,2.4
2022-11-05T11:10:45.519Z,20.799999
2022-11-05T11:11:53.884Z,20.799999
2022-11-05T11:13:02.296Z,20.799999
2022-11-05T11:14:10.911Z,29.700001
2022-11-05T11:15:19.312Z,29.700001
2022-11-05T11:16:27.699Z,29.700001
2022-11-05T11:17:36.335Z,11.9
2022-11-05T11:18:45.471Z,11.9
2022-11-05T11:19:54.243Z,11.9
2022-11-05T11:21:04.513Z,46.200001
2022-11-05T11:22:13.730Z,46.200001
2022-11-05T11:23:22.084Z,46.200001
2022-11-05T11:24:33.448Z,4.7
2022-11-05T11:25:39.174Z,4.7
2022-11-05T11:26:47.551Z,4.7
2022-11-05T11:27:56.166Z,18.4
2022-11-05T11:29:04.533Z,18.4
2022-11-05T11:30:12.911Z,18.4
2022-11-05T11:31:21.504Z,39.200001
2022-11-05T11:32:29.907Z,39.200001
2022-11-05T11:33:38.306Z,39.200001
2022-11-05T11:34:46.968Z,7.7
2022-11-05T11:35:55.497Z,7.7
2022-11-05T11:37:03.910Z,7.7
2022-11-05T11:38:12.889Z,19
2022-11-05T11:39:21.258Z,19
2022-11-05T11:40:29.635Z,19
2022-11-05T11:41:38.857Z,27.5
2022-11-05T11:42:47.645Z,27.5
2022-11-05T11:43:56.063Z,27.5
2022-11-05T11:45:05.007Z,8.5
2022-11-05T11:46:15.078Z,8.5
2022-11-05T11:47:21.728Z,8.5
2022-11-05T11:48:30.342Z,6.3
2022-11-05T11:49:38.713Z,6.3
2022-11-05T11:50:47.037Z,6.3
2022-11-05T11:51:55.587Z,50.799999
2022-11-05T11:53:05.026Z,50.799999
2022-11-05T11:54:13.802Z,50.799999
2022-11-05T11:55:22.396Z,52.400002
2022-11-05T11:56:31.484Z,52.400002
2022-11-05T11:57:41.858Z,52.400002
2022-11-05T11:58:50.453Z,10.5
2022-11-05T12:00:14.612Z,10.5
2022-11-05T12:01:08.087Z,10.5
2022-11-05T12:02:16.930Z,2
2022-11-05T12:03:25.293Z,2
2022-11-05T12:04:33.978Z,2
2022-11-05T12:05:43.850Z,10.3
2022-11-05T12:06:53.838Z,10.3
2022-11-05T12:08:02.527Z,10.3
2022-11-05T12:09:11.126Z,17.5
2022-11-05T12:10:20.561Z,17.5
2022-11-05T12:11:29.263Z,17.5
2022-11-05T12:12:39.723Z,3.5
2022-11-05T12:13:49.288Z,3.5
2022-11-05T12:14:57.879Z,3.5
2022-11-05T12:16:06.525Z,1.7
2022-11-05T12:17:15.193Z,1.7
2022-11-05T12:18:23.562Z,1.7
2022-11-05T12:19:32.136Z,2.1
2022-11-05T12:20:40.502Z,2.1
2022-11-05T12:21:52.826Z,2.1
2022-11-05T12:22:57.403Z,3.8
2022-11-05T12:24:05.775Z,3.8
2022-11-05T12:25:14.134Z,3.8
2022-11-05T12:26:22.686Z,14.7
2022-11-05T12:27:31.046Z,14.7
2022-11-05T12:28:58.089Z,14.7
2022-11-05T12:29:48.155Z,3.7
2022-11-05T12:30:56.521Z,3.7
2022-11-05T12:32:04.871Z,3.7
2022-11-05T12:33:13.860Z,7.7
2022-11-05T12:34:21.837Z,7.7
2022-11-05T12:35:30.190Z,7.7
2022-11-05T12:36:38.772Z,2.7
2022-11-05T12:37:47.090Z,2.7
2022-11-05T12:38:55.452Z,2.7
2022-11-05T12:40:04.017Z,3.1
2022-11-05T12:41:12.380Z,3.1
2022-11-05T12:42:20.746Z,3.1
2022-11-05T12:43:29.305Z,2.4
2022-11-05T12:44:37.677Z,2.4
2022-11-05T12:45:46.017Z,2.4
2022-11-05T12:46:54.591Z,1.9
2022-11-05T12:48:02.938Z,1.9
2022-11-05T12:49:11.300Z,1.9
2022-11-05T12:50:19.862Z,2.3
2022-11-05T12:51:28.223Z,2.3
2022-11-05T12:52:36.589Z,2.3
2022-11-05T12:53:45.138Z,2.1
2022-11-05T12:54:53.503Z,2.1
2022-11-05T12:56:01.858Z,2.1
2022-11-05T12:57:10.414Z,1.7
2022-11-05T12:58:18.764Z,1.7
2022-11-05T12:59:27.157Z,1.7
2022-11-05T13:00:35.730Z,2.4
2022-11-05T13:01:44.181Z,2.4
2022-11-05T13:02:52.472Z,2.4
2022-11-05T13:04:01.056Z,2.3
2022-11-05T13:05:09.439Z,2.3
2022-11-05T13:06:17.800Z,2.3
2022-11-05T13:07:26.378Z,2.5
2022-11-05T13:08:34.881Z,2.5
2022-11-05T13:09:43.125Z,2.5
2022-11-05T13:10:51.700Z,2.2
2022-11-05T13:12:00.085Z,2.2
2022-11-05T13:13:08.551Z,2.2
2022-11-05T13:14:17.063Z,2.2
2022-11-05T13:15:25.446Z,2.2
2022-11-05T13:16:33.792Z,2.2
2022-11-05T13:17:42.365Z,2
2022-11-05T13:18:50.749Z,2
2022-11-05T13:19:59.113Z,2
2022-11-05T13:21:07.683Z,1.6
2022-11-05T13:22:16.048Z,1.6
2022-11-05T13:23:24.435Z,1.6
2022-11-05T13:24:33.144Z,1.3
2022-11-05T13:25:41.386Z,1.3
2022-11-05T13:26:49.762Z,1.3
2022-11-05T13:27:58.332Z,1.5
2022-11-05T13:29:06.726Z,1.5
2022-11-05T13:30:15.075Z,1.5
2022-11-05T13:31:23.663Z,1.8
2022-11-05T13:32:32.012Z,1.8
2022-11-05T13:33:40.383Z,1.8
2022-11-05T13:34:48.950Z,2.3
2022-11-05T13:35:57.323Z,2.3
2022-11-05T13:37:05.670Z,2.3
2022-11-05T13:38:14.238Z,1.9
2022-11-05T13:39:22.613Z,1.9
2022-11-05T13:40:31.006Z,1.9
2022-11-05T13:41:39.622Z,1.5
2022-11-05T13:42:47.958Z,1.5
2022-11-05T13:43:56.326Z,1.5
2022-11-05T13:45:04.898Z,1.3
2022-11-05T13:46:13.258Z,1.3
2022-11-05T13:47:21.616Z,1.3
2022-11-05T13:48:30.211Z,1.4
2022-11-05T13:49:38.597Z,1.4
2022-11-05T13:50:46.953Z,1.4
2022-11-05T13:51:55.517Z,1.5
2022-11-05T13:53:03.865Z,1.5
2022-11-05T13:54:12.234Z,1.5
2022-11-05T13:55:20.902Z,1.4
2022-11-05T13:56:29.319Z,1.4
2022-11-05T13:57:37.585Z,1.4
2022-11-05T13:58:46.172Z,1.8
2022-11-05T13:59:54.578Z,1.8
2022-11-05T14:01:02.977Z,1.8
2022-11-05T14:02:11.696Z,1.6
2022-11-05T14:03:20.053Z,1.6
2022-11-05T14:04:28.418Z,1.6
2022-11-05T14:05:37.000Z,1.5
2022-11-05T14:06:45.393Z,1.5
2022-11-05T14:07:53.762Z,1.5
2022-11-05T14:09:02.349Z,1.5
2022-11-05T14:10:10.787Z,1.5
2022-11-05T14:11:19.211Z,1.5
2022-11-05T14:12:28.096Z,1.7
2022-11-05T14:13:36.287Z,1.7
2022-11-05T14:14:44.672Z,1.7
2022-11-05T14:15:53.328Z,1.6
2022-11-05T14:17:01.708Z,1.6
2022-11-05T14:18:10.257Z,1.6
2022-11-05T14:19:18.896Z,1.5
2022-11-05T14:20:27.264Z,1.5
2022-11-05T14:21:35.611Z,1.5
2022-11-05T14:22:44.414Z,3.7
2022-11-05T14:23:52.756Z,3.7
2022-11-05T14:25:01.115Z,3.7
2022-11-05T14:26:09.685Z,4.5
2022-11-05T14:27:18.040Z,4.5
2022-11-05T14:28:26.517Z,4.5
2022-11-05T15:02:22.215Z,0
2022-11-05T15:03:30.459Z,0
2022-11-05T15:04:38.806Z,0
2022-11-05T15:05:47.419Z,2.3
2022-11-05T15:06:55.780Z,2.3
2022-11-05T15:08:04.156Z,2.3
2022-11-05T15:09:12.728Z,3.3
2022-11-05T15:10:21.148Z,3.3
2022-11-05T15:11:29.517Z,3.3
2022-11-05T15:12:38.160Z,2.6
2022-11-05T15:13:46.542Z,2.6
2022-11-05T15:14:54.952Z,2.6
2022-11-05T15:16:03.508Z,4
2022-11-05T15:17:11.875Z,4
2022-11-05T15:18:20.259Z,4
2022-11-05T15:19:28.834Z,2.5
2022-11-05T15:20:39.892Z,2.5
2022-11-05T15:21:45.530Z,2.5
2022-11-05T15:22:54.110Z,3.3
2022-11-05T15:24:02.513Z,3.3
2022-11-05T15:25:10.870Z,3.3
2022-11-05T15:26:19.447Z,2.6
2022-11-05T15:27:27.893Z,2.6
2022-11-05T15:28:36.424Z,2.6
2022-11-05T15:29:45.071Z,4.6
2022-11-05T15:30:53.445Z,4.6
2022-11-05T15:32:01.829Z,4.6
2022-11-05T15:33:10.861Z,3.4
2022-11-05T15:34:18.943Z,3.4
2022-11-05T15:35:27.296Z,3.4
2022-11-05T15:36:35.901Z,11.1
2022-11-05T15:37:48.489Z,11.1
2022-11-05T15:39:15.443Z,11.1
2022-11-05T15:40:01.519Z,6.3
2022-11-05T15:41:10.110Z,6.3
2022-11-05T15:42:18.507Z,6.3
2022-11-05T15:43:27.094Z,10.7
2022-11-05T15:44:35.463Z,10.7
2022-11-05T15:45:43.842Z,10.7
2022-11-05T15:46:52.418Z,13.3
2022-11-05T15:48:00.789Z,13.3
2022-11-05T15:49:09.175Z,13.3
2022-11-05T15:50:17.938Z,19.4
2022-11-05T15:51:26.189Z,19.4
2022-11-05T15:52:34.572Z,19.4
2022-11-05T15:53:56.437Z,19.4
2022-11-05T15:54:51.747Z,19.4
2022-11-05T15:56:00.145Z,19.4
2022-11-05T15:57:08.739Z,15.6
2022-11-05T15:58:17.152Z,15.6
2022-11-05T15:59:25.549Z,15.6
2022-11-05T16:00:35.021Z,13.2
2022-11-05T16:01:43.757Z,13.2
2022-11-05T16:02:52.119Z,13.2